Time;durP1;ratioP1;P1;durP2;ratioP2;P2;SDS_P1;SDS_P2;PMS_P1;PMS_P2;Temp;Humidity;BMP_temperature;BMP_pressure;BME280_temperature;BME280_humidity;BME280_pressure;Samples;Min_cycle;Max_cycle;Signal;HPM_P1;HPM_P2
2023/07/31 00:04:12;;;;;;;1.40;0.82;;;;;;;14.79;86.46;99860.25;10118379;29;21533;-75
2023/07/31 00:09:17;;;;;;;1.20;1.10;;;;;;;14.78;87.39;99850.44;10106076;29;20131;-75
2023/07/31 00:14:20;;;;;;;2.10;1.27;;;;;;;14.98;86.79;99837.50;10112693;29;20045;-75
2023/07/31 00:19:23;;;;;;;1.15;1.00;;;;;;;15.03;86.57;99843.25;10115351;29;20052;-75
2023/07/31 00:24:27;;;;;;;0.60;0.60;;;;;;;14.70;88.32;99845.88;10126125;29;20082;-75
2023/07/31 00:29:30;;;;;;;1.38;1.27;;;;;;;14.95;88.82;99827.00;10122824;29;20063;-75
2023/07/31 00:34:33;;;;;;;2.78;1.60;;;;;;;14.89;88.72;99816.84;10116696;29;20508;-75
2023/07/31 00:39:39;;;;;;;2.92;2.13;;;;;;;14.95;88.80;99814.34;10118433;29;20067;-75
2023/07/31 00:44:42;;;;;;;2.60;2.40;;;;;;;15.01;89.10;99807.41;10116286;29;20064;-75
2023/07/31 00:49:45;;;;;;;2.60;2.40;;;;;;;15.08;88.91;99810.28;10109067;29;20055;-75
2023/07/31 00:54:50;;;;;;;3.63;3.30;;;;;;;14.88;90.37;99807.88;10108791;29;20048;-74
2023/07/31 00:59:52;;;;;;;5.50;4.03;;;;;;;14.83;89.90;99805.66;10107911;29;20417;-75
2023/07/31 01:04:56;;;;;;;4.03;3.50;;;;;;;14.91;90.02;99807.56;10103484;29;20084;-75
2023/07/31 01:10:05;;;;;;;3.75;3.38;;;;;;;14.44;91.52;99799.16;10104912;29;20775;-75
2023/07/31 01:15:10;;;;;;;3.67;3.30;;;;;;;14.77;90.17;99808.22;10107753;29;20056;-74
2023/07/31 01:20:18;;;;;;;5.20;3.83;;;;;;;14.45;91.09;99792.75;10111895;29;20044;-74
2023/07/31 01:25:38;;;;;;;4.10;3.70;;;;;;;14.55;91.08;99793.44;10111207;29;20143;-75
2023/07/31 01:30:48;;;;;;;4.75;4.30;;;;;;;14.68;90.23;99779.47;10114461;29;20056;-75
2023/07/31 01:35:51;;;;;;;6.97;4.30;;;;;;;14.39;90.08;99783.44;10112487;29;21079;-76
2023/07/31 01:40:54;;;;;;;4.90;3.90;;;;;;;14.13;90.89;99778.94;10114226;29;20636;-76
2023/07/31 01:46:02;;;;;;;5.60;3.67;;;;;;;14.16;90.08;99770.50;10112254;29;20055;-76
2023/07/31 01:51:05;;;;;;;3.78;2.67;;;;;;;14.17;89.71;99774.03;10108683;29;20536;-76
2023/07/31 01:56:08;;;;;;;3.55;3.10;;;;;;;13.87;91.19;99764.59;10110925;29;20725;-76
2023/07/31 02:01:12;;;;;;;4.00;2.97;;;;;;;14.04;90.69;99776.34;10113108;29;20052;-76
2023/07/31 02:06:15;;;;;;;2.70;2.20;;;;;;;14.29;88.62;99763.78;10110260;29;20052;-76
2023/07/31 02:11:18;;;;;;;3.50;2.20;;;;;;;14.10;87.46;99764.91;10111601;29;20044;-76
2023/07/31 02:16:23;;;;;;;3.63;1.85;;;;;;;13.85;87.95;99753.13;10114915;29;20076;-76
2023/07/31 02:21:26;;;;;;;2.80;1.95;;;;;;;13.72;88.28;99748.19;10126490;29;21194;-76
2023/07/31 02:26:28;;;;;;;3.10;1.92;;;;;;;13.48;89.09;99746.16;10126172;29;20044;-76
2023/07/31 02:31:33;;;;;;;3.42;1.85;;;;;;;13.69;88.55;99738.56;10121249;29;20059;-75
2023/07/31 02:36:36;;;;;;;3.25;1.70;;;;;;;13.56;89.98;99740.00;10123312;29;20052;-77
2023/07/31 02:41:39;;;;;;;2.90;1.70;;;;;;;13.24;91.37;99746.81;10119802;29;20163;-76
2023/07/31 02:46:43;;;;;;;2.55;1.50;;;;;;;13.36;91.23;99733.94;10111431;29;20052;-77
2023/07/31 02:51:47;;;;;;;1.75;1.50;;;;;;;13.27;91.94;99727.59;10119843;29;21535;-77
2023/07/31 02:56:50;;;;;;;4.18;1.45;;;;;;;13.42;91.54;99736.88;10128436;29;20063;-77
2023/07/31 03:01:55;;;;;;;1.20;1.10;;;;;;;13.51;91.93;99736.91;10109576;29;20401;-77
2023/07/31 03:06:57;;;;;;;1.83;1.20;;;;;;;13.39;92.36;99736.34;10125637;29;20056;-78
2023/07/31 03:12:01;;;;;;;1.25;0.82;;;;;;;13.57;91.92;99734.41;10114577;29;20062;-77
2023/07/31 03:17:06;;;;;;;1.25;1.00;;;;;;;13.66;91.77;99725.38;10114398;29;21167;-77
2023/07/31 03:22:09;;;;;;;1.42;1.23;;;;;;;13.68;91.45;99736.00;10124316;29;20050;-76
2023/07/31 03:27:12;;;;;;;3.53;1.50;;;;;;;13.60;92.76;99727.84;10123912;29;20044;-77
2023/07/31 03:32:16;;;;;;;4.10;3.70;;;;;;;13.64;93.81;99727.38;10128247;29;20057;-77
2023/07/31 03:37:19;;;;;;;8.65;4.75;;;;;;;13.51;95.06;99726.97;10125950;29;20358;-77
2023/07/31 03:42:22;;;;;;;12.90;7.47;;;;;;;13.71;95.47;99722.19;10120803;29;21164;-77
2023/07/31 03:47:27;;;;;;;18.67;11.63;;;;;;;13.71;96.86;99717.66;10109797;29;20090;-77
2023/07/31 03:52:30;;;;;;;28.35;15.73;;;;;;;13.88;96.89;99710.47;10117537;29;20139;-77
2023/07/31 03:57:33;;;;;;;29.08;18.50;;;;;;;13.83;100.00;99706.56;10106180;29;20051;-76
2023/07/31 04:02:37;;;;;;;25.70;15.55;;;;;;;13.99;99.09;99703.06;10105155;29;20078;-76
2023/07/31 04:07:40;;;;;;;29.75;17.17;;;;;;;14.20;97.31;99710.75;10102586;29;20428;-76
2023/07/31 04:12:43;;;;;;;40.38;19.92;;;;;;;13.96;99.41;99712.38;10111564;29;21356;-76
2023/07/31 04:17:47;;;;;;;36.28;19.98;;;;;;;13.89;99.57;99709.44;10112798;29;20055;-76
2023/07/31 04:22:50;;;;;;;34.83;19.42;;;;;;;14.12;98.15;99717.81;10118994;29;20401;-76
2023/07/31 04:27:53;;;;;;;40.20;19.52;;;;;;;14.12;97.89;99706.16;10123020;29;20040;-77
2023/07/31 04:32:58;;;;;;;31.83;17.90;;;;;;;13.77;99.49;99702.66;10120866;29;20052;-77
2023/07/31 04:38:00;;;;;;;22.02;13.15;;;;;;;13.85;99.76;99696.44;10113361;29;20056;-76
2023/07/31 04:43:03;;;;;;;30.00;15.50;;;;;;;13.98;99.20;99714.88;10115739;29;20083;-77
2023/07/31 04:48:07;;;;;;;32.53;19.48;;;;;;;13.85;99.66;99709.94;10112415;29;20059;-76
2023/07/31 04:53:10;;;;;;;35.08;19.50;;;;;;;14.13;97.97;99697.91;10113760;29;20135;-76
2023/07/31 04:58:13;;;;;;;29.17;15.38;;;;;;;13.73;99.74;99711.22;10100795;29;20107;-76
2023/07/31 05:03:17;;;;;;;31.63;18.23;;;;;;;13.77;98.58;99717.97;10101808;29;20182;-76
2023/07/31 05:08:20;;;;;;;31.85;18.15;;;;;;;13.76;98.76;99710.91;10105187;29;20053;-76
2023/07/31 05:13:23;;;;;;;30.83;16.52;;;;;;;13.89;98.12;99705.91;10106662;29;20056;-76
2023/07/31 05:18:27;;;;;;;32.38;17.83;;;;;;;13.80;98.81;99713.13;10111805;29;20519;-77
2023/07/31 05:23:32;;;;;;;21.02;11.63;;;;;;;13.69;97.57;99679.19;10119793;29;20056;-77
2023/07/31 05:28:36;;;;;;;22.65;10.75;;;;;;;13.56;98.17;99688.72;10113170;29;20040;-77
2023/07/31 05:33:40;;;;;;;26.13;13.52;;;;;;;13.78;96.69;99701.66;10112416;29;20048;-77
2023/07/31 05:38:44;;;;;;;29.13;15.27;;;;;;;13.76;97.14;99714.44;10114860;29;20052;-77
2023/07/31 05:43:47;;;;;;;31.35;13.07;;;;;;;14.01;94.83;99717.25;10115108;29;20259;-77
2023/07/31 05:48:51;;;;;;;27.42;12.77;;;;;;;14.07;94.62;99714.78;10104598;29;20052;-77
2023/07/31 05:53:54;;;;;;;28.52;11.63;;;;;;;13.97;93.84;99716.75;10104267;29;20060;-77
2023/07/31 05:58:57;;;;;;;27.15;11.55;;;;;;;14.25;92.79;99701.13;10108884;29;20052;-76
2023/07/31 06:04:03;;;;;;;21.38;10.80;;;;;;;14.47;92.17;99704.25;10101596;29;20057;-77
2023/07/31 06:09:06;;;;;;;16.65;7.32;;;;;;;14.08;92.62;99692.16;10107585;29;21236;-76
2023/07/31 06:14:09;;;;;;;12.65;6.28;;;;;;;14.17;92.34;99703.81;10112575;29;20547;-76
2023/07/31 06:19:14;;;;;;;27.02;9.93;;;;;;;14.29;93.07;99704.34;10115391;29;20053;-76
2023/07/31 06:24:20;;;;;;;19.25;6.15;;;;;;;14.19;92.98;99701.81;10113350;29;20055;-76
2023/07/31 06:29:23;;;;;;;18.13;9.02;;;;;;;14.63;92.63;99698.88;10117453;29;20044;-76
2023/07/31 06:34:27;;;;;;;14.85;6.22;;;;;;;14.50;91.73;99709.31;10115486;29;20051;-78
2023/07/31 06:39:33;;;;;;;23.85;9.23;;;;;;;14.42;91.49;99696.63;10109954;29;20056;-76
2023/07/31 06:44:36;;;;;;;23.33;8.82;;;;;;;14.64;90.72;99676.22;10112089;29;20417;-76
2023/07/31 06:49:40;;;;;;;20.92;9.20;;;;;;;14.51;90.77;99676.75;10114666;29;20052;-77
2023/07/31 06:54:43;;;;;;;17.30;5.72;;;;;;;14.51;90.60;99682.16;10121123;29;20547;-77
2023/07/31 06:59:45;;;;;;;25.02;8.63;;;;;;;14.49;92.49;99675.22;10104862;29;20059;-76
2023/07/31 07:04:50;;;;;;;21.30;8.77;;;;;;;14.73;92.54;99675.25;10106094;29;20045;-77
2023/07/31 07:09:53;;;;;;;29.50;9.35;;;;;;;14.73;91.38;99677.94;10109106;29;20444;-75
2023/07/31 07:14:57;;;;;;;22.10;10.25;;;;;;;15.26;90.29;99673.84;10114046;29;20429;-76
2023/07/31 07:20:03;;;;;;;19.65;8.55;;;;;;;14.91;91.45;99687.75;10118854;29;20523;-76
2023/07/31 07:25:07;;;;;;;16.98;7.45;;;;;;;15.07;90.36;99687.72;10120024;29;20063;-77
2023/07/31 07:30:10;;;;;;;22.48;9.90;;;;;;;14.63;92.05;99698.88;10118133;29;20508;-76
2023/07/31 07:35:15;;;;;;;16.15;8.23;;;;;;;14.77;93.13;99676.56;10119361;29;21200;-77
2023/07/31 07:40:18;;;;;;;21.63;10.02;;;;;;;15.24;92.82;99675.03;10118880;29;20685;-77
2023/07/31 07:45:20;;;;;;;19.33;10.13;;;;;;;15.01;93.12;99666.78;10119850;29;20071;-77
2023/07/31 07:50:25;;;;;;;19.98;9.60;;;;;;;14.93;93.12;99659.50;10114607;29;20072;-77
2023/07/31 07:55:27;;;;;;;20.65;10.40;;;;;;;14.92;94.93;99652.44;10112775;29;20044;-76
2023/07/31 08:00:30;;;;;;;18.77;9.32;;;;;;;14.77;94.54;99649.53;10103054;29;20059;-77
2023/07/31 08:05:34;;;;;;;16.45;7.60;;;;;;;14.55;98.23;99669.13;10105905;29;20051;-77
2023/07/31 08:10:37;;;;;;;12.63;7.00;;;;;;;14.77;95.83;99679.28;10110210;29;20417;-77
2023/07/31 08:15:42;;;;;;;17.42;8.20;;;;;;;14.66;98.96;99655.28;10117212;29;20064;-79
2023/07/31 08:20:46;;;;;;;12.10;6.85;;;;;;;14.65;98.14;99644.66;10127236;29;21193;-77
2023/07/31 08:25:50;;;;;;;8.93;4.07;;;;;;;14.53;97.62;99631.47;10119402;29;20052;-77
2023/07/31 08:30:53;;;;;;;11.70;6.57;;;;;;;15.10;96.28;99614.34;10118956;29;20606;-77
2023/07/31 08:35:59;;;;;;;7.53;3.60;;;;;;;14.93;98.28;99613.53;10121290;29;20048;-78
2023/07/31 08:41:04;;;;;;;9.38;5.93;;;;;;;15.41;97.12;99603.66;10120943;29;21596;-77
2023/07/31 08:46:07;;;;;;;8.50;6.35;;;;;;;15.61;96.06;99600.53;10116932;29;20164;-76
2023/07/31 08:51:12;;;;;;;8.95;6.68;;;;;;;15.73;96.36;99601.81;10115993;29;20143;-77
2023/07/31 08:56:17;;;;;;;11.65;7.18;;;;;;;15.64;97.44;99601.03;10108511;29;20063;-77
2023/07/31 09:01:20;;;;;;;10.30;6.40;;;;;;;15.68;98.95;99604.22;10112727;29;20082;-76
2023/07/31 09:06:27;;;;;;;6.47;4.82;;;;;;;15.86;95.06;99598.53;10112133;29;20091;-77
2023/07/31 09:11:30;;;;;;;7.63;5.20;;;;;;;15.81;94.65;99590.94;10117355;29;20044;-78
2023/07/31 09:16:34;;;;;;;7.00;4.88;;;;;;;15.27;95.96;99594.34;10121427;29;21310;-76
2023/07/31 09:21:48;;;;;;;6.32;4.30;;;;;;;15.38;96.82;99597.72;10121199;29;20056;-77
2023/07/31 09:26:55;;;;;;;6.97;4.90;;;;;;;15.26;98.77;99598.09;10120131;29;20187;-76
2023/07/31 09:31:58;;;;;;;7.30;5.18;;;;;;;15.03;98.96;99595.28;10125223;29;20501;-77
2023/07/31 09:37:03;;;;;;;10.20;5.53;;;;;;;15.05;97.08;99600.50;10121674;29;20052;-76
2023/07/31 09:42:07;;;;;;;6.22;4.00;;;;;;;15.33;97.21;99589.25;10118261;29;20055;-77
2023/07/31 09:47:24;;;;;;;8.98;5.65;;;;;;;15.37;97.17;99583.38;10113386;29;20185;-77
2023/07/31 09:52:29;;;;;;;5.00;3.58;;;;;;;15.26;96.75;99587.25;10103838;29;20532;-76
2023/07/31 09:57:33;;;;;;;10.50;5.68;;;;;;;15.97;94.01;99567.50;10105961;29;20051;-76
2023/07/31 10:02:38;;;;;;;6.45;4.18;;;;;;;15.59;94.84;99568.22;10111778;29;20056;-76
2023/07/31 10:07:44;;;;;;;5.20;3.55;;;;;;;15.26;95.77;99572.91;10108700;29;21214;-76
2023/07/31 10:12:48;;;;;;;6.57;4.35;;;;;;;15.50;96.99;99576.56;10113880;29;20051;-76
2023/07/31 10:17:52;;;;;;;6.35;3.85;;;;;;;15.25;99.15;99563.94;10117161;29;20089;-76
2023/07/31 10:22:58;;;;;;;6.30;4.88;;;;;;;15.53;99.09;99576.22;10117775;29;20052;-77
2023/07/31 10:28:02;;;;;;;6.03;4.10;;;;;;;15.73;97.84;99576.63;10120321;29;20048;-77
2023/07/31 10:33:06;;;;;;;6.20;3.45;;;;;;;15.52;98.67;99569.09;10120516;29;20055;-77
2023/07/31 10:38:12;;;;;;;5.93;4.70;;;;;;;15.65;99.90;99563.97;10113210;29;20531;-77
2023/07/31 10:43:26;;;;;;;5.20;3.30;;;;;;;15.47;100.00;99564.22;10121017;29;20531;-78
2023/07/31 10:48:34;;;;;;;3.55;2.92;;;;;;;15.67;99.60;99551.09;10118539;29;20063;-77
2023/07/31 10:53:40;;;;;;;3.25;2.15;;;;;;;15.26;100.00;99554.78;10108988;29;20052;-77
2023/07/31 10:58:45;;;;;;;3.80;2.13;;;;;;;15.66;100.00;99546.69;10112351;29;20060;-77
2023/07/31 11:03:52;;;;;;;5.88;2.63;;;;;;;15.47;99.25;99558.81;10113372;29;20092;-78
2023/07/31 11:08:56;;;;;;;2.28;2.08;;;;;;;15.33;100.00;99548.69;10118534;29;20052;-77
2023/07/31 11:13:59;;;;;;;3.13;2.78;;;;;;;15.24;100.00;99548.72;10118205;29;20063;-76
2023/07/31 11:19:02;;;;;;;2.25;2.03;;;;;;;15.33;100.00;99548.69;10120296;29;20184;-77
2023/07/31 11:24:06;;;;;;;4.15;2.40;;;;;;;15.32;100.00;99544.28;10117240;29;20076;-78
2023/07/31 11:29:12;;;;;;;3.17;2.58;;;;;;;15.73;99.28;99542.25;10123761;29;20068;-76
2023/07/31 11:34:15;;;;;;;3.60;2.40;;;;;;;15.44;100.00;99534.78;10123443;29;20092;-77
2023/07/31 11:39:19;;;;;;;3.45;2.88;;;;;;;15.17;100.00;99539.63;10123861;29;20139;-77
2023/07/31 11:44:23;;;;;;;3.33;3.03;;;;;;;15.19;100.00;99536.72;10118438;29;20512;-76
2023/07/31 11:49:30;;;;;;;4.22;2.67;;;;;;;15.32;100.00;99544.28;10106989;29;20056;-77
2023/07/31 11:54:37;;;;;;;3.25;2.55;;;;;;;15.41;99.23;99546.84;10105451;29;20063;-77
2023/07/31 11:59:40;;;;;;;2.65;2.20;;;;;;;15.46;98.70;99535.47;10106522;29;20044;-77
2023/07/31 12:04:44;;;;;;;2.65;2.45;;;;;;;15.36;100.00;99537.53;10108826;29;20108;-77
2023/07/31 12:09:55;;;;;;;4.00;2.50;;;;;;;15.32;99.72;99520.78;10114271;29;20059;-76
2023/07/31 12:14:58;;;;;;;3.00;2.60;;;;;;;15.44;100.00;99546.47;10115393;29;20425;-76
2023/07/31 12:20:01;;;;;;;3.33;3.03;;;;;;;15.75;100.00;99515.84;10116717;29;20056;-77
2023/07/31 12:25:05;;;;;;;5.35;2.42;;;;;;;15.61;99.70;99525.59;10117124;29;20100;-77
2023/07/31 12:30:27;;;;;;;2.47;2.00;;;;;;;15.69;99.19;99511.16;10115780;29;20432;-77
2023/07/31 12:35:36;;;;;;;1.47;1.37;;;;;;;15.78;98.69;99509.25;10112623;29;20665;-77
2023/07/31 12:40:41;;;;;;;2.80;2.50;;;;;;;15.43;100.00;99509.59;10120679;29;20058;-77
2023/07/31 12:45:44;;;;;;;3.47;2.30;;;;;;;15.58;100.00;99508.88;10110941;29;20048;-77
2023/07/31 12:50:47;;;;;;;2.50;2.30;;;;;;;15.47;100.00;99513.66;10118096;29;20075;-77
2023/07/31 12:55:51;;;;;;;2.47;2.20;;;;;;;15.50;100.00;99507.03;10109540;29;20048;-77
2023/07/31 13:00:54;;;;;;;3.28;3.08;;;;;;;15.44;100.00;99514.00;10111932;29;20992;-77
2023/07/31 13:05:57;;;;;;;3.90;3.25;;;;;;;15.57;100.00;99516.13;10119796;29;20084;-77
2023/07/31 13:11:01;;;;;;;7.65;4.20;;;;;;;15.65;100.00;99516.06;10124747;29;20427;-77
2023/07/31 13:16:04;;;;;;;8.57;6.95;;;;;;;15.56;100.00;99491.94;10111803;29;20048;-77
2023/07/31 13:21:07;;;;;;;11.13;6.80;;;;;;;15.99;100.00;99501.31;10112504;29;20063;-77
2023/07/31 13:26:11;;;;;;;9.18;7.95;;;;;;;16.02;98.91;99497.41;10113371;29;20188;-76
2023/07/31 13:31:14;;;;;;;7.80;5.47;;;;;;;16.27;95.64;99487.22;10111291;29;21221;-76
2023/07/31 13:36:17;;;;;;;6.68;6.05;;;;;;;16.98;91.70;99487.66;10115847;29;20064;-76
2023/07/31 13:41:21;;;;;;;8.13;6.30;;;;;;;16.99;90.52;99478.50;10114989;29;20535;-75
2023/07/31 13:46:25;;;;;;;6.82;5.40;;;;;;;16.69;90.58;99472.22;10108669;29;20059;-75
2023/07/31 13:51:28;;;;;;;9.85;5.63;;;;;;;16.97;89.22;99480.53;10110617;29;20056;-75
2023/07/31 13:56:32;;;;;;;6.30;5.70;;;;;;;17.35;88.63;99458.72;10124221;29;20101;-75
2023/07/31 14:01:35;;;;;;;6.05;4.25;;;;;;;16.76;89.08;99470.47;10130788;29;20044;-75
2023/07/31 14:06:38;;;;;;;5.57;4.25;;;;;;;17.07;87.65;99450.44;10130789;29;20067;-75
2023/07/31 14:11:42;;;;;;;6.20;5.30;;;;;;;17.17;87.05;99430.13;10130991;29;20091;-75
2023/07/31 14:16:45;;;;;;;7.25;4.95;;;;;;;16.98;86.72;99438.84;10125191;29;20075;-75
2023/07/31 14:21:48;;;;;;;6.05;3.55;;;;;;;16.98;86.20;99442.41;10127206;29;20048;-75
2023/07/31 14:27:13;;;;;;;7.22;5.45;;;;;;;17.12;85.64;99437.13;10118517;29;20528;-75
2023/07/31 14:32:16;;;;;;;5.25;3.88;;;;;;;16.88;85.67;99447.25;10121203;29;20184;-75
2023/07/31 14:37:18;;;;;;;4.95;4.45;;;;;;;16.80;86.17;99479.91;10119870;29;20071;-75
2023/07/31 14:42:23;;;;;;;5.18;4.50;;;;;;;16.95;85.64;99456.34;10121386;29;20052;-75
2023/07/31 14:47:25;;;;;;;4.97;3.92;;;;;;;16.83;86.00;99465.13;10107501;29;20072;-75
2023/07/31 14:52:28;;;;;;;7.45;4.68;;;;;;;16.97;86.26;99466.97;10124304;29;20053;-75
2023/07/31 14:57:33;;;;;;;5.78;5.18;;;;;;;16.84;85.07;99478.50;10126383;29;20111;-74
2023/07/31 15:02:35;;;;;;;6.20;4.03;;;;;;;17.04;85.21;99460.63;10124549;29;20060;-75
2023/07/31 15:07:38;;;;;;;7.68;5.18;;;;;;;17.44;83.33;99452.13;10128375;29;20398;-74
2023/07/31 15:12:43;;;;;;;5.65;4.13;;;;;;;17.27;83.94;99462.38;10126774;29;20048;-76
2023/07/31 15:17:46;;;;;;;5.32;4.05;;;;;;;17.64;82.18;99431.50;10124836;29;20527;-76
2023/07/31 15:22:49;;;;;;;4.65;4.20;;;;;;;17.64;82.67;99414.38;10126583;29;20056;-75
2023/07/31 15:27:53;;;;;;;2.90;2.63;;;;;;;17.85;80.65;99399.91;10127730;29;20172;-75
2023/07/31 15:32:56;;;;;;;3.60;2.90;;;;;;;17.83;80.91;99410.16;10123367;29;20073;-76
2023/07/31 15:37:59;;;;;;;3.42;2.60;;;;;;;17.43;81.12;99424.16;10120530;29;20063;-76
2023/07/31 15:43:04;;;;;;;5.10;2.78;;;;;;;17.34;82.59;99419.91;10118655;29;21171;-75
2023/07/31 15:48:07;;;;;;;5.15;3.63;;;;;;;17.45;83.87;99426.69;10103288;29;20067;-76
2023/07/31 15:53:09;;;;;;;8.02;4.13;;;;;;;17.28;83.86;99420.66;10110670;29;20056;-76
2023/07/31 15:58:14;;;;;;;4.25;3.28;;;;;;;17.14;83.79;99422.38;10111841;29;20534;-75
2023/07/31 16:03:16;;;;;;;5.95;3.85;;;;;;;16.88;86.46;99411.16;10114373;29;20054;-75
2023/07/31 16:08:20;;;;;;;8.05;4.95;;;;;;;16.62;89.70;99398.94;10116657;29;20432;-75
2023/07/31 16:13:24;;;;;;;4.32;3.78;;;;;;;16.78;89.01;99393.31;10117231;29;20044;-74
2023/07/31 16:18:27;;;;;;;6.35;3.67;;;;;;;16.63;88.83;99395.19;10119274;29;20575;-75
2023/07/31 16:23:29;;;;;;;7.47;4.22;;;;;;;16.87;88.14;99390.50;10113882;29;20048;-75
2023/07/31 16:28:34;;;;;;;5.72;4.47;;;;;;;17.01;87.27;99379.63;10111346;29;20044;-74
2023/07/31 16:33:37;;;;;;;4.85;4.25;;;;;;;17.30;86.34;99364.31;10118626;29;20673;-74
2023/07/31 16:38:40;;;;;;;9.57;4.45;;;;;;;17.38;85.41;99374.19;10117415;29;20056;-74
2023/07/31 16:43:44;;;;;;;6.35;3.92;;;;;;;17.32;85.20;99359.53;10109028;29;20064;-74
2023/07/31 16:48:47;;;;;;;6.35;2.97;;;;;;;17.31;84.48;99329.88;10113292;29;20174;-75
2023/07/31 16:53:50;;;;;;;4.53;3.50;;;;;;;17.28;84.29;99346.53;10116804;29;20056;-74
2023/07/31 16:58:54;;;;;;;6.60;4.47;;;;;;;17.18;86.71;99320.56;10119699;29;20077;-74
2023/07/31 17:03:59;;;;;;;5.88;4.22;;;;;;;16.67;88.09;99320.56;10113309;29;20052;-74
2023/07/31 17:09:02;;;;;;;6.88;4.18;;;;;;;16.47;89.18;99325.75;10121011;29;20052;-74
2023/07/31 17:14:07;;;;;;;6.50;3.92;;;;;;;16.72;88.03;99310.00;10125382;29;20530;-76
2023/07/31 17:19:10;;;;;;;5.50;4.45;;;;;;;16.42;91.19;99314.63;10124104;29;20597;-74
2023/07/31 17:24:13;;;;;;;7.15;4.78;;;;;;;16.43;89.69;99294.66;10119091;29;20131;-74
2023/07/31 17:29:17;;;;;;;7.40;5.05;;;;;;;16.38;91.02;99288.94;10115845;29;20178;-74
2023/07/31 17:34:21;;;;;;;6.38;5.70;;;;;;;16.53;90.59;99286.22;10106860;29;21314;-75
2023/07/31 17:39:23;;;;;;;6.78;5.32;;;;;;;16.87;88.85;99295.59;10100350;29;20076;-75
2023/07/31 17:44:28;;;;;;;6.82;4.60;;;;;;;16.63;90.75;99286.75;10099062;29;20053;-75
2023/07/31 17:49:31;;;;;;;5.85;4.07;;;;;;;16.64;91.66;99274.03;10107635;29;20055;-75
2023/07/31 17:54:34;;;;;;;6.00;5.40;;;;;;;16.45;92.73;99268.16;10105739;29;20063;-75
2023/07/31 17:59:38;;;;;;;8.68;5.40;;;;;;;16.23;94.40;99264.53;10121082;29;20148;-75
2023/07/31 18:04:41;;;;;;;7.75;6.18;;;;;;;16.55;93.49;99257.03;10122214;29;20550;-75
2023/07/31 18:09:44;;;;;;;7.38;5.90;;;;;;;16.35;93.73;99245.97;10115637;29;20044;-76
2023/07/31 18:14:49;;;;;;;8.35;6.28;;;;;;;16.28;94.72;99240.44;10114534;29;20497;-76
2023/07/31 18:19:52;;;;;;;8.55;6.22;;;;;;;16.30;94.52;99243.81;10121011;29;20575;-77
2023/07/31 18:24:55;;;;;;;8.07;6.47;;;;;;;16.33;94.71;99231.75;10116704;29;20055;-76
2023/07/31 18:29:59;;;;;;;8.20;6.32;;;;;;;16.10;95.51;99234.56;10119620;29;20079;-76
2023/07/31 18:35:02;;;;;;;9.63;6.22;;;;;;;16.23;95.45;99242.00;10114142;29;20059;-77
2023/07/31 18:40:05;;;;;;;8.88;6.13;;;;;;;16.05;95.67;99237.00;10110676;29;20059;-77
2023/07/31 18:45:10;;;;;;;7.68;5.95;;;;;;;15.83;96.72;99226.09;10106206;29;20144;-76
2023/07/31 18:50:13;;;;;;;7.28;6.13;;;;;;;16.01;96.16;99228.41;10116267;29;20147;-77
2023/07/31 18:55:16;;;;;;;12.30;6.78;;;;;;;15.74;97.38;99215.50;10116186;29;20053;-76
2023/07/31 19:00:20;;;;;;;10.70;6.32;;;;;;;15.69;97.04;99224.22;10112674;29;21329;-76
2023/07/31 19:05:23;;;;;;;9.02;5.93;;;;;;;15.68;97.82;99208.97;10121798;29;20048;-75
2023/07/31 19:10:25;;;;;;;7.22;4.70;;;;;;;15.60;98.06;99226.13;10129006;29;20078;-75
2023/07/31 19:15:30;;;;;;;10.35;5.75;;;;;;;15.84;96.17;99202.56;10129382;29;20040;-76
2023/07/31 19:20:33;;;;;;;6.88;4.97;;;;;;;15.75;96.34;99206.38;10129876;29;20052;-75
2023/07/31 19:25:35;;;;;;;6.18;5.00;;;;;;;15.78;95.88;99184.34;10125251;29;20047;-74
2023/07/31 19:30:40;;;;;;;6.45;5.03;;;;;;;15.45;97.62;99182.00;10119362;29;20064;-75
2023/07/31 19:35:43;;;;;;;6.30;5.20;;;;;;;15.66;96.08;99183.97;10116787;29;20064;-75
2023/07/31 19:40:46;;;;;;;9.50;5.75;;;;;;;15.63;96.72;99179.78;10117379;29;20131;-75
2023/07/31 19:45:50;;;;;;;10.65;5.45;;;;;;;15.61;96.95;99164.75;10117433;29;20047;-76
2023/07/31 19:50:53;;;;;;;10.52;5.90;;;;;;;15.58;97.72;99162.44;10122676;29;20568;-76
2023/07/31 19:55:56;;;;;;;5.75;5.15;;;;;;;15.27;99.06;99161.50;10123679;29;20668;-77
2023/07/31 20:01:01;;;;;;;6.25;5.30;;;;;;;15.50;97.26;99143.56;10117022;29;21337;-76
2023/07/31 20:06:03;;;;;;;7.18;4.22;;;;;;;15.26;98.42;99138.19;10120173;29;20048;-77
2023/07/31 20:11:08;;;;;;;5.72;4.03;;;;;;;15.23;99.48;99129.63;10123680;29;20055;-76
2023/07/31 20:16:12;;;;;;;3.33;2.97;;;;;;;15.09;100.00;99127.75;10122911;29;20115;-76
2023/07/31 20:21:15;;;;;;;6.65;4.20;;;;;;;15.17;99.25;99101.44;10120168;29;21328;-76
2023/07/31 20:26:19;;;;;;;5.32;4.22;;;;;;;15.62;96.32;99090.66;10101088;29;20147;-77
2023/07/31 20:31:24;;;;;;;3.85;3.08;;;;;;;15.23;99.08;99068.25;10113639;29;20287;-78
2023/07/31 20:36:27;;;;;;;3.40;2.75;;;;;;;15.25;97.92;99047.25;10106690;29;20048;-78
2023/07/31 20:41:30;;;;;;;5.30;3.22;;;;;;;15.33;97.43;99059.00;10102156;29;20044;-77
2023/07/31 20:46:34;;;;;;;5.20;2.97;;;;;;;15.01;100.00;99071.88;10115216;29;20160;-76
2023/07/31 20:51:37;;;;;;;3.92;2.53;;;;;;;15.02;99.13;99051.91;10110635;29;20868;-77
2023/07/31 20:56:40;;;;;;;4.03;2.53;;;;;;;15.35;97.39;99033.47;10112402;29;20056;-76
2023/07/31 21:01:45;;;;;;;3.35;2.35;;;;;;;15.02;99.05;99046.50;10125807;29;20145;-76
2023/07/31 21:06:48;;;;;;;5.38;2.47;;;;;;;15.03;100.00;99016.59;10126006;29;20127;-76
2023/07/31 21:11:51;;;;;;;6.25;2.67;;;;;;;15.05;99.79;99005.56;10124370;29;20044;-74
2023/07/31 21:16:55;;;;;;;2.60;2.08;;;;;;;15.23;98.36;99003.31;10120864;29;20051;-77
2023/07/31 21:21:58;;;;;;;3.00;2.55;;;;;;;15.24;99.27;98999.59;10113993;29;20513;-77
2023/07/31 21:27:01;;;;;;;2.00;1.80;;;;;;;15.04;100.00;98991.22;10105410;29;20536;-76
2023/07/31 21:32:06;;;;;;;2.20;0.95;;;;;;;15.05;99.79;98997.44;10103701;29;20626;-76
2023/07/31 21:37:10;;;;;;;1.25;1.15;;;;;;;15.09;99.44;98997.94;10098892;29;20514;-77
2023/07/31 21:42:13;;;;;;;2.13;1.67;;;;;;;15.36;98.13;98977.47;10101659;29;20644;-77
2023/07/31 21:47:18;;;;;;;1.50;1.33;;;;;;;14.90;100.00;98985.81;10109100;29;20081;-77
2023/07/31 21:52:20;;;;;;;2.33;1.23;;;;;;;15.38;100.00;98970.03;10108745;29;20068;-75
2023/07/31 21:57:23;;;;;;;1.75;1.40;;;;;;;15.54;97.86;98977.09;10113115;29;20047;-77
2023/07/31 22:02:27;;;;;;;1.98;1.60;;;;;;;15.05;100.00;98952.31;10112866;29;20143;-76
2023/07/31 22:07:30;;;;;;;3.15;2.13;;;;;;;15.33;99.39;98961.59;10114839;29;20055;-77
2023/07/31 22:12:33;;;;;;;2.40;2.20;;;;;;;15.12;100.00;98933.50;10123165;29;20051;-75
2023/07/31 22:17:37;;;;;;;2.25;1.77;;;;;;;14.82;100.00;98940.78;10117862;29;20529;-75
2023/07/31 22:22:40;;;;;;;3.15;2.95;;;;;;;15.21;100.00;98943.16;10115920;29;21244;-75
2023/07/31 22:27:43;;;;;;;3.33;3.03;;;;;;;15.22;100.00;98946.69;10115684;29;20123;-76
2023/07/31 22:32:47;;;;;;;3.10;2.78;;;;;;;14.90;100.00;98924.47;10109009;29;20135;-75
2023/07/31 22:37:50;;;;;;;3.35;3.00;;;;;;;15.10;100.00;98919.31;10107571;29;20059;-76
2023/07/31 22:42:52;;;;;;;3.70;3.40;;;;;;;15.12;100.00;98919.97;10110472;29;20056;-75
2023/07/31 22:47:59;;;;;;;4.05;3.75;;;;;;;15.26;100.00;98902.88;10111352;29;20500;-75
2023/07/31 22:53:02;;;;;;;3.53;3.22;;;;;;;15.44;98.28;98891.66;10117646;29;21145;-76
2023/07/31 22:58:05;;;;;;;3.03;2.72;;;;;;;15.10;99.25;98878.75;10119500;29;21149;-76
2023/07/31 23:03:09;;;;;;;2.28;2.08;;;;;;;15.10;97.39;98857.13;10117978;29;20694;-75
2023/07/31 23:08:13;;;;;;;2.90;2.30;;;;;;;15.25;98.11;98876.03;10119203;29;20058;-76
2023/07/31 23:13:16;;;;;;;5.90;4.00;;;;;;;15.34;98.65;98877.59;10121612;29;20722;-75
2023/07/31 23:18:21;;;;;;;5.10;4.60;;;;;;;15.49;97.77;98874.81;10118771;29;20638;-75
2023/07/31 23:23:25;;;;;;;5.82;5.03;;;;;;;15.34;98.78;98849.69;10113752;29;20044;-77
2023/07/31 23:28:28;;;;;;;5.93;5.43;;;;;;;15.52;97.27;98830.31;10124105;29;20056;-75